sensor_id;sensor_type;location;lat;lon;timestamp;P1;durP1;ratioP1;P2;durP2;ratioP2
7493;SDS011;3788;49.902;8.590;2024-03-23T00:55:12;6.30;;;5.70;;
7493;SDS011;3788;49.902;8.590;2024-03-23T00:57:39;5.97;;;5.43;;
7493;SDS011;3788;49.902;8.590;2024-03-23T01:00:05;6.17;;;5.57;;
7493;SDS011;3788;49.902;8.590;2024-03-23T01:02:35;6.87;;;6.17;;
7493;SDS011;3788;49.902;8.590;2024-03-23T01:05:00;7.07;;;6.37;;
7493;SDS011;3788;49.902;8.590;2024-03-23T01:07:27;6.90;;;6.30;;
7493;SDS011;3788;49.902;8.590;2024-03-23T01:09:53;6.90;;;6.17;;
7493;SDS011;3788;49.902;8.590;2024-03-23T01:12:21;6.70;;;5.90;;
7493;SDS011;3788;49.902;8.590;2024-03-23T01:14:46;6.67;;;5.60;;
7493;SDS011;3788;49.902;8.590;2024-03-23T01:17:13;7.43;;;6.17;;
7493;SDS011;3788;49.902;8.590;2024-03-23T01:19:39;7.13;;;6.43;;
7493;SDS011;3788;49.902;8.590;2024-03-23T01:22:06;7.30;;;6.60;;
7493;SDS011;3788;49.902;8.590;2024-03-23T01:24:32;7.13;;;6.43;;
7493;SDS011;3788;49.902;8.590;2024-03-23T01:26:58;7.60;;;6.80;;
7493;SDS011;3788;49.902;8.590;2024-03-23T01:29:25;7.50;;;6.80;;
7493;SDS011;3788;49.902;8.590;2024-03-23T01:31:52;8.60;;;6.97;;
7493;SDS011;3788;49.902;8.590;2024-03-23T01:34:18;7.13;;;6.50;;
7493;SDS011;3788;49.902;8.590;2024-03-23T01:36:45;7.00;;;6.40;;
7493;SDS011;3788;49.902;8.590;2024-03-23T01:39:11;7.60;;;6.83;;
7493;SDS011;3788;49.902;8.590;2024-03-23T01:41:39;6.80;;;6.20;;
7493;SDS011;3788;49.902;8.590;2024-03-23T01:44:07;6.33;;;5.73;;
7493;SDS011;3788;49.902;8.590;2024-03-23T01:46:35;6.77;;;6.07;;
7493;SDS011;3788;49.902;8.590;2024-03-23T01:49:02;6.50;;;5.90;;
7493;SDS011;3788;49.902;8.590;2024-03-23T01:51:30;7.27;;;6.57;;
7493;SDS011;3788;49.902;8.590;2024-03-23T01:53:57;6.53;;;5.83;;
7493;SDS011;3788;49.902;8.590;2024-03-23T01:56:25;6.50;;;5.90;;
7493;SDS011;3788;49.902;8.590;2024-03-23T01:58:51;6.70;;;5.87;;
7493;SDS011;3788;49.902;8.590;2024-03-23T02:01:18;7.13;;;6.43;;
7493;SDS011;3788;49.902;8.590;2024-03-23T02:03:45;8.23;;;6.73;;
7493;SDS011;3788;49.902;8.590;2024-03-23T02:06:12;7.13;;;6.43;;
7493;SDS011;3788;49.902;8.590;2024-03-23T02:08:38;7.87;;;7.17;;
7493;SDS011;3788;49.902;8.590;2024-03-23T02:11:05;9.27;;;8.37;;
7493;SDS011;3788;49.902;8.590;2024-03-23T02:13:31;8.40;;;7.50;;
7493;SDS011;3788;49.902;8.590;2024-03-23T02:15:58;11.70;;;9.03;;
7493;SDS011;3788;49.902;8.590;2024-03-23T02:18:24;10.13;;;9.13;;
7493;SDS011;3788;49.902;8.590;2024-03-23T02:20:52;11.73;;;9.30;;
7493;SDS011;3788;49.902;8.590;2024-03-23T02:23:19;11.60;;;10.23;;
7493;SDS011;3788;49.902;8.590;2024-03-23T02:25:45;12.17;;;9.87;;
7493;SDS011;3788;49.902;8.590;2024-03-23T02:28:11;10.90;;;9.63;;
7493;SDS011;3788;49.902;8.590;2024-03-23T02:30:38;10.23;;;8.50;;
7493;SDS011;3788;49.902;8.590;2024-03-23T02:33:04;11.97;;;9.83;;
7493;SDS011;3788;49.902;8.590;2024-03-23T02:35:30;11.70;;;9.80;;
7493;SDS011;3788;49.902;8.590;2024-03-23T02:37:56;10.53;;;9.43;;
7493;SDS011;3788;49.902;8.590;2024-03-23T02:40:24;10.93;;;8.80;;
7493;SDS011;3788;49.902;8.590;2024-03-23T02:42:51;10.80;;;9.70;;
7493;SDS011;3788;49.902;8.590;2024-03-23T02:45:17;11.47;;;10.10;;
7493;SDS011;3788;49.902;8.590;2024-03-23T02:47:43;9.67;;;8.67;;
7493;SDS011;3788;49.902;8.590;2024-03-23T02:50:10;9.90;;;9.00;;
7493;SDS011;3788;49.902;8.590;2024-03-23T02:52:36;10.33;;;9.03;;
7493;SDS011;3788;49.902;8.590;2024-03-23T02:55:03;9.10;;;8.20;;
7493;SDS011;3788;49.902;8.590;2024-03-23T02:57:30;10.50;;;9.40;;
7493;SDS011;3788;49.902;8.590;2024-03-23T02:59:57;10.23;;;9.00;;
7493;SDS011;3788;49.902;8.590;2024-03-23T03:02:23;10.30;;;9.20;;
7493;SDS011;3788;49.902;8.590;2024-03-23T03:04:49;10.37;;;9.27;;
7493;SDS011;3788;49.902;8.590;2024-03-23T03:07:15;11.77;;;10.00;;
7493;SDS011;3788;49.902;8.590;2024-03-23T03:09:41;10.60;;;9.17;;
7493;SDS011;3788;49.902;8.590;2024-03-23T03:12:07;10.10;;;9.10;;
7493;SDS011;3788;49.902;8.590;2024-03-23T03:14:35;12.00;;;9.93;;
7493;SDS011;3788;49.902;8.590;2024-03-23T03:17:01;10.67;;;9.57;;
7493;SDS011;3788;49.902;8.590;2024-03-23T03:19:28;10.67;;;9.57;;
7493;SDS011;3788;49.902;8.590;2024-03-23T03:21:53;10.73;;;9.63;;
7493;SDS011;3788;49.902;8.590;2024-03-23T03:24:20;12.30;;;9.60;;
7493;SDS011;3788;49.902;8.590;2024-03-23T03:26:46;11.73;;;10.53;;
7493;SDS011;3788;49.902;8.590;2024-03-23T03:29:13;11.87;;;10.40;;
7493;SDS011;3788;49.902;8.590;2024-03-23T03:31:40;11.40;;;10.20;;
7493;SDS011;3788;49.902;8.590;2024-03-23T03:34:06;13.87;;;11.13;;
7493;SDS011;3788;49.902;8.590;2024-03-23T03:36:32;12.33;;;11.03;;
7493;SDS011;3788;49.902;8.590;2024-03-23T03:38:59;11.63;;;10.00;;
7493;SDS011;3788;49.902;8.590;2024-03-23T03:41:24;11.47;;;10.10;;
7493;SDS011;3788;49.902;8.590;2024-03-23T03:43:51;11.83;;;9.53;;
7493;SDS011;3788;49.902;8.590;2024-03-23T03:46:17;11.03;;;9.77;;
7493;SDS011;3788;49.902;8.590;2024-03-23T03:48:45;11.40;;;9.60;;
7493;SDS011;3788;49.902;8.590;2024-03-23T03:51:12;13.93;;;10.23;;
7493;SDS011;3788;49.902;8.590;2024-03-23T03:53:39;10.60;;;9.60;;
7493;SDS011;3788;49.902;8.590;2024-03-23T03:56:05;12.87;;;10.40;;
7493;SDS011;3788;49.902;8.590;2024-03-23T03:58:32;12.27;;;10.47;;
7493;SDS011;3788;49.902;8.590;2024-03-23T04:00:58;12.07;;;10.57;;
7493;SDS011;3788;49.902;8.590;2024-03-23T04:03:25;12.73;;;11.20;;
7493;SDS011;3788;49.902;8.590;2024-03-23T04:05:52;13.40;;;11.37;;
7493;SDS011;3788;49.902;8.590;2024-03-23T04:08:19;12.07;;;10.37;;
7493;SDS011;3788;49.902;8.590;2024-03-23T04:10:45;12.77;;;11.33;;
7493;SDS011;3788;49.902;8.590;2024-03-23T04:13:12;13.93;;;11.77;;
7493;SDS011;3788;49.902;8.590;2024-03-23T04:15:38;14.40;;;10.50;;
7493;SDS011;3788;49.902;8.590;2024-03-23T04:18:05;14.87;;;11.67;;
7493;SDS011;3788;49.902;8.590;2024-03-23T04:20:31;12.60;;;11.07;;
7493;SDS011;3788;49.902;8.590;2024-03-23T04:22:59;13.03;;;10.93;;
7493;SDS011;3788;49.902;8.590;2024-03-23T04:25:24;13.57;;;12.13;;
7493;SDS011;3788;49.902;8.590;2024-03-23T04:27:51;17.17;;;13.50;;
7493;SDS011;3788;49.902;8.590;2024-03-23T04:30:17;13.93;;;12.20;;
7493;SDS011;3788;49.902;8.590;2024-03-23T04:32:44;15.83;;;12.37;;
7493;SDS011;3788;49.902;8.590;2024-03-23T04:35:10;17.33;;;12.57;;
7493;SDS011;3788;49.902;8.590;2024-03-23T04:37:38;13.30;;;11.17;;
7493;SDS011;3788;49.902;8.590;2024-03-23T04:40:08;12.10;;;9.77;;
7493;SDS011;3788;49.902;8.590;2024-03-23T04:42:36;11.53;;;9.10;;
7493;SDS011;3788;49.902;8.590;2024-03-23T04:45:03;9.60;;;7.70;;
7493;SDS011;3788;49.902;8.590;2024-03-23T04:47:31;7.17;;;5.87;;
7493;SDS011;3788;49.902;8.590;2024-03-23T04:49:58;6.10;;;5.10;;
7493;SDS011;3788;49.902;8.590;2024-03-23T04:52:26;5.53;;;4.00;;
7493;SDS011;3788;49.902;8.590;2024-03-23T04:54:52;4.53;;;3.50;;
7493;SDS011;3788;49.902;8.590;2024-03-23T04:57:20;3.67;;;2.87;;
7493;SDS011;3788;49.902;8.590;2024-03-23T04:59:46;3.17;;;2.60;;
7493;SDS011;3788;49.902;8.590;2024-03-23T05:02:12;2.97;;;2.23;;
7493;SDS011;3788;49.902;8.590;2024-03-23T05:04:39;1.63;;;1.53;;
7493;SDS011;3788;49.902;8.590;2024-03-23T05:07:05;1.40;;;1.30;;
7493;SDS011;3788;49.902;8.590;2024-03-23T05:09:32;1.93;;;1.30;;
7493;SDS011;3788;49.902;8.590;2024-03-23T05:11:58;1.40;;;1.30;;
7493;SDS011;3788;49.902;8.590;2024-03-23T05:14:26;1.10;;;1.00;;
7493;SDS011;3788;49.902;8.590;2024-03-23T05:16:52;1.30;;;1.20;;
7493;SDS011;3788;49.902;8.590;2024-03-23T05:19:19;1.00;;;0.90;;
7493;SDS011;3788;49.902;8.590;2024-03-23T05:21:45;1.27;;;1.17;;
7493;SDS011;3788;49.902;8.590;2024-03-23T05:24:11;1.30;;;1.20;;
7493;SDS011;3788;49.902;8.590;2024-03-23T05:26:38;1.90;;;1.30;;
7493;SDS011;3788;49.902;8.590;2024-03-23T05:29:04;1.20;;;1.10;;
7493;SDS011;3788;49.902;8.590;2024-03-23T05:31:33;1.37;;;1.27;;
7493;SDS011;3788;49.902;8.590;2024-03-23T05:33:59;1.30;;;1.20;;
7493;SDS011;3788;49.902;8.590;2024-03-23T05:36:25;1.30;;;1.20;;
7493;SDS011;3788;49.902;8.590;2024-03-23T05:38:51;1.30;;;1.20;;
7493;SDS011;3788;49.902;8.590;2024-03-23T05:41:18;1.57;;;1.30;;
7493;SDS011;3788;49.902;8.590;2024-03-23T05:43:43;1.50;;;1.40;;
7493;SDS011;3788;49.902;8.590;2024-03-23T05:46:10;1.20;;;1.10;;
7493;SDS011;3788;49.902;8.590;2024-03-23T05:48:37;1.13;;;1.10;;
7493;SDS011;3788;49.902;8.590;2024-03-23T05:51:04;1.77;;;1.20;;
7493;SDS011;3788;49.902;8.590;2024-03-23T05:53:30;3.73;;;1.67;;
7493;SDS011;3788;49.902;8.590;2024-03-23T05:56:01;2.00;;;1.90;;
7493;SDS011;3788;49.902;8.590;2024-03-23T05:58:29;2.43;;;2.23;;
7493;SDS011;3788;49.902;8.590;2024-03-23T06:00:59;2.80;;;2.10;;
7493;SDS011;3788;49.902;8.590;2024-03-23T06:03:25;1.83;;;1.73;;
7493;SDS011;3788;49.902;8.590;2024-03-23T06:05:53;2.33;;;2.13;;
7493;SDS011;3788;49.902;8.590;2024-03-23T06:08:19;2.50;;;2.30;;
7493;SDS011;3788;49.902;8.590;2024-03-23T06:10:46;2.37;;;2.20;;
7493;SDS011;3788;49.902;8.590;2024-03-23T06:13:11;2.37;;;2.17;;
7493;SDS011;3788;49.902;8.590;2024-03-23T06:15:38;2.40;;;2.20;;
7493;SDS011;3788;49.902;8.590;2024-03-23T06:18:04;2.00;;;1.90;;
7493;SDS011;3788;49.902;8.590;2024-03-23T06:20:32;1.97;;;1.87;;
7493;SDS011;3788;49.902;8.590;2024-03-23T06:23:00;2.17;;;2.00;;
7493;SDS011;3788;49.902;8.590;2024-03-23T06:25:27;1.83;;;1.73;;
7493;SDS011;3788;49.902;8.590;2024-03-23T06:27:52;2.00;;;1.60;;
7493;SDS011;3788;49.902;8.590;2024-03-23T06:30:19;1.93;;;1.83;;
7493;SDS011;3788;49.902;8.590;2024-03-23T06:32:45;1.50;;;1.40;;
7493;SDS011;3788;49.902;8.590;2024-03-23T06:35:11;1.50;;;1.40;;
7493;SDS011;3788;49.902;8.590;2024-03-23T06:37:37;1.10;;;1.10;;
7493;SDS011;3788;49.902;8.590;2024-03-23T06:40:07;1.23;;;1.13;;
7493;SDS011;3788;49.902;8.590;2024-03-23T06:42:35;1.30;;;1.20;;
7493;SDS011;3788;49.902;8.590;2024-03-23T06:45:01;1.30;;;1.20;;
7493;SDS011;3788;49.902;8.590;2024-03-23T06:47:28;1.23;;;1.13;;
7493;SDS011;3788;49.902;8.590;2024-03-23T06:49:55;1.00;;;1.00;;
7493;SDS011;3788;49.902;8.590;2024-03-23T06:52:21;1.33;;;1.20;;
7493;SDS011;3788;49.902;8.590;2024-03-23T06:54:47;0.97;;;0.97;;
7493;SDS011;3788;49.902;8.590;2024-03-23T06:57:14;0.80;;;0.80;;
7493;SDS011;3788;49.902;8.590;2024-03-23T06:59:41;1.17;;;0.93;;
7493;SDS011;3788;49.902;8.590;2024-03-23T07:02:07;1.07;;;1.00;;
7493;SDS011;3788;49.902;8.590;2024-03-23T07:04:34;0.83;;;0.83;;
7493;SDS011;3788;49.902;8.590;2024-03-23T07:06:59;1.00;;;0.90;;
7493;SDS011;3788;49.902;8.590;2024-03-23T07:09:27;1.17;;;1.00;;
7493;SDS011;3788;49.902;8.590;2024-03-23T07:11:53;0.70;;;0.70;;
7493;SDS011;3788;49.902;8.590;2024-03-23T07:14:22;0.90;;;0.90;;
7493;SDS011;3788;49.902;8.590;2024-03-23T07:16:48;1.20;;;1.03;;
7493;SDS011;3788;49.902;8.590;2024-03-23T07:19:15;1.10;;;0.90;;
7493;SDS011;3788;49.902;8.590;2024-03-23T07:21:42;0.97;;;0.93;;
7493;SDS011;3788;49.902;8.590;2024-03-23T07:24:08;1.07;;;0.90;;
7493;SDS011;3788;49.902;8.590;2024-03-23T07:26:35;1.10;;;1.00;;
7493;SDS011;3788;49.902;8.590;2024-03-23T07:29:00;2.67;;;1.10;;
7493;SDS011;3788;49.902;8.590;2024-03-23T07:31:29;2.77;;;1.47;;
7493;SDS011;3788;49.902;8.590;2024-03-23T07:33:55;2.83;;;1.10;;
7493;SDS011;3788;49.902;8.590;2024-03-23T07:36:22;1.50;;;1.30;;
7493;SDS011;3788;49.902;8.590;2024-03-23T07:38:47;1.87;;;1.10;;
7493;SDS011;3788;49.902;8.590;2024-03-23T07:41:15;3.50;;;2.47;;
7493;SDS011;3788;49.902;8.590;2024-03-23T07:43:42;1.33;;;1.17;;
7493;SDS011;3788;49.902;8.590;2024-03-23T07:46:09;2.13;;;1.33;;
7493;SDS011;3788;49.902;8.590;2024-03-23T07:48:38;1.93;;;1.03;;
7493;SDS011;3788;49.902;8.590;2024-03-23T07:51:05;1.33;;;1.20;;
7493;SDS011;3788;49.902;8.590;2024-03-23T07:53:33;2.20;;;1.30;;
7493;SDS011;3788;49.902;8.590;2024-03-23T07:56:00;2.43;;;1.23;;
7493;SDS011;3788;49.902;8.590;2024-03-23T07:58:29;2.50;;;1.30;;
7493;SDS011;3788;49.902;8.590;2024-03-23T08:00:55;2.47;;;1.40;;
7493;SDS011;3788;49.902;8.590;2024-03-23T08:03:22;2.67;;;1.30;;
7493;SDS011;3788;49.902;8.590;2024-03-23T08:05:49;2.00;;;1.80;;
7493;SDS011;3788;49.902;8.590;2024-03-23T08:08:16;3.37;;;2.17;;
7493;SDS011;3788;49.902;8.590;2024-03-23T08:10:48;3.30;;;2.50;;
7493;SDS011;3788;49.902;8.590;2024-03-23T08:13:15;3.17;;;2.37;;
7493;SDS011;3788;49.902;8.590;2024-03-23T08:15:41;2.60;;;2.40;;
7493;SDS011;3788;49.902;8.590;2024-03-23T08:18:09;2.93;;;2.10;;
7493;SDS011;3788;49.902;8.590;2024-03-23T08:20:35;2.10;;;1.90;;
7493;SDS011;3788;49.902;8.590;2024-03-23T08:23:03;3.70;;;2.17;;
7493;SDS011;3788;49.902;8.590;2024-03-23T08:25:30;3.57;;;2.10;;
7493;SDS011;3788;49.902;8.590;2024-03-23T08:27:57;6.67;;;2.90;;
7493;SDS011;3788;49.902;8.590;2024-03-23T08:30:23;2.27;;;2.07;;
7493;SDS011;3788;49.902;8.590;2024-03-23T08:32:50;3.23;;;2.03;;
7493;SDS011;3788;49.902;8.590;2024-03-23T08:35:16;4.87;;;2.40;;
7493;SDS011;3788;49.902;8.590;2024-03-23T08:37:43;2.40;;;2.20;;
7493;SDS011;3788;49.902;8.590;2024-03-23T08:40:11;2.97;;;2.10;;
7493;SDS011;3788;49.902;8.590;2024-03-23T08:42:37;2.10;;;1.90;;
7493;SDS011;3788;49.902;8.590;2024-03-23T08:45:04;2.17;;;1.87;;
7493;SDS011;3788;49.902;8.590;2024-03-23T08:47:33;2.47;;;2.03;;
7493;SDS011;3788;49.902;8.590;2024-03-23T08:50:00;2.70;;;1.93;;
7493;SDS011;3788;49.902;8.590;2024-03-23T08:52:26;3.80;;;2.30;;
7493;SDS011;3788;49.902;8.590;2024-03-23T08:54:54;3.73;;;1.87;;
7493;SDS011;3788;49.902;8.590;2024-03-23T08:57:23;3.10;;;1.87;;
7493;SDS011;3788;49.902;8.590;2024-03-23T08:59:49;4.23;;;1.97;;
7493;SDS011;3788;49.902;8.590;2024-03-23T09:02:16;4.27;;;2.40;;
7493;SDS011;3788;49.902;8.590;2024-03-23T09:04:42;5.07;;;2.27;;
7493;SDS011;3788;49.902;8.590;2024-03-23T09:07:10;3.13;;;2.10;;
7493;SDS011;3788;49.902;8.590;2024-03-23T09:09:37;3.33;;;1.90;;
7493;SDS011;3788;49.902;8.590;2024-03-23T09:12:04;4.90;;;1.73;;
7493;SDS011;3788;49.902;8.590;2024-03-23T09:14:32;4.10;;;2.07;;
7493;SDS011;3788;49.902;8.590;2024-03-23T09:16:59;4.57;;;2.47;;
7493;SDS011;3788;49.902;8.590;2024-03-23T09:19:26;5.57;;;2.63;;
7493;SDS011;3788;49.902;8.590;2024-03-23T09:21:54;4.57;;;3.00;;
7493;SDS011;3788;49.902;8.590;2024-03-23T09:24:20;5.37;;;2.50;;
7493;SDS011;3788;49.902;8.590;2024-03-23T09:26:46;5.67;;;2.73;;
7493;SDS011;3788;49.902;8.590;2024-03-23T09:29:12;6.80;;;2.87;;
7493;SDS011;3788;49.902;8.590;2024-03-23T09:31:40;3.90;;;2.70;;
7493;SDS011;3788;49.902;8.590;2024-03-23T09:34:06;2.70;;;2.50;;
7493;SDS011;3788;49.902;8.590;2024-03-23T09:36:33;3.93;;;2.93;;
7493;SDS011;3788;49.902;8.590;2024-03-23T09:38:58;5.23;;;2.83;;
7493;SDS011;3788;49.902;8.590;2024-03-23T09:41:25;7.00;;;2.93;;
7493;SDS011;3788;49.902;8.590;2024-03-23T09:43:52;5.83;;;2.47;;
7493;SDS011;3788;49.902;8.590;2024-03-23T09:46:19;6.23;;;2.97;;
7493;SDS011;3788;49.902;8.590;2024-03-23T09:48:46;5.53;;;2.83;;
7493;SDS011;3788;49.902;8.590;2024-03-23T09:51:13;2.90;;;2.63;;
7493;SDS011;3788;49.902;8.590;2024-03-23T09:53:39;4.33;;;2.47;;
7493;SDS011;3788;49.902;8.590;2024-03-23T09:56:07;5.87;;;2.23;;
7493;SDS011;3788;49.902;8.590;2024-03-23T09:58:33;6.70;;;2.53;;
7493;SDS011;3788;49.902;8.590;2024-03-23T10:01:00;3.77;;;2.20;;
7493;SDS011;3788;49.902;8.590;2024-03-23T10:03:27;4.17;;;2.10;;
7493;SDS011;3788;49.902;8.590;2024-03-23T10:06:01;4.63;;;2.43;;
7493;SDS011;3788;49.902;8.590;2024-03-23T10:08:29;4.80;;;2.10;;
7493;SDS011;3788;49.902;8.590;2024-03-23T10:10:58;4.03;;;2.40;;
7493;SDS011;3788;49.902;8.590;2024-03-23T10:13:38;6.17;;;1.97;;
7493;SDS011;3788;49.902;8.590;2024-03-23T10:16:07;4.57;;;2.40;;
7493;SDS011;3788;49.902;8.590;2024-03-23T10:18:36;4.77;;;2.50;;
7493;SDS011;3788;49.902;8.590;2024-03-23T10:21:09;3.77;;;2.50;;
7493;SDS011;3788;49.902;8.590;2024-03-23T10:23:36;5.20;;;2.70;;
7493;SDS011;3788;49.902;8.590;2024-03-23T10:26:17;2.00;;;1.90;;
7493;SDS011;3788;49.902;8.590;2024-03-23T10:28:53;5.93;;;2.40;;
7493;SDS011;3788;49.902;8.590;2024-03-23T10:31:24;5.67;;;2.67;;
7493;SDS011;3788;49.902;8.590;2024-03-23T10:33:50;4.10;;;1.73;;
7493;SDS011;3788;49.902;8.590;2024-03-23T10:36:20;4.20;;;2.23;;
7493;SDS011;3788;49.902;8.590;2024-03-23T10:38:47;4.40;;;2.10;;
7493;SDS011;3788;49.902;8.590;2024-03-23T10:41:15;4.53;;;1.73;;
7493;SDS011;3788;49.902;8.590;2024-03-23T10:43:43;6.40;;;2.03;;
7493;SDS011;3788;49.902;8.590;2024-03-23T10:46:10;4.03;;;2.03;;
7493;SDS011;3788;49.902;8.590;2024-03-23T10:48:36;4.73;;;1.90;;
7493;SDS011;3788;49.902;8.590;2024-03-23T10:51:03;2.50;;;1.20;;
7493;SDS011;3788;49.902;8.590;2024-03-23T10:53:32;3.27;;;1.40;;
7493;SDS011;3788;49.902;8.590;2024-03-23T10:55:59;2.80;;;1.10;;
7493;SDS011;3788;49.902;8.590;2024-03-23T10:58:28;3.07;;;1.53;;
7493;SDS011;3788;49.902;8.590;2024-03-23T11:00:56;1.50;;;1.10;;
7493;SDS011;3788;49.902;8.590;2024-03-23T11:03:30;3.93;;;1.80;;
7493;SDS011;3788;49.902;8.590;2024-03-23T11:05:59;3.53;;;1.67;;
7493;SDS011;3788;49.902;8.590;2024-03-23T11:08:32;3.80;;;1.50;;
7493;SDS011;3788;49.902;8.590;2024-03-23T11:11:11;3.87;;;1.43;;
7493;SDS011;3788;49.902;8.590;2024-03-23T11:13:39;4.20;;;1.50;;
7493;SDS011;3788;49.902;8.590;2024-03-23T11:16:12;5.53;;;1.80;;
7493;SDS011;3788;49.902;8.590;2024-03-23T11:18:40;1.47;;;1.10;;
7493;SDS011;3788;49.902;8.590;2024-03-23T11:21:06;4.90;;;1.77;;
7493;SDS011;3788;49.902;8.590;2024-03-23T11:23:34;2.43;;;1.63;;
7493;SDS011;3788;49.902;8.590;2024-03-23T11:26:00;3.43;;;1.80;;
7493;SDS011;3788;49.902;8.590;2024-03-23T11:28:29;2.83;;;1.80;;
7493;SDS011;3788;49.902;8.590;2024-03-23T11:30:55;4.37;;;1.87;;
7493;SDS011;3788;49.902;8.590;2024-03-23T11:33:21;2.73;;;1.60;;
7493;SDS011;3788;49.902;8.590;2024-03-23T11:35:48;3.43;;;1.43;;
7493;SDS011;3788;49.902;8.590;2024-03-23T11:38:16;3.03;;;1.37;;
7493;SDS011;3788;49.902;8.590;2024-03-23T11:40:44;1.93;;;1.20;;
7493;SDS011;3788;49.902;8.590;2024-03-23T11:43:12;1.50;;;1.27;;
7493;SDS011;3788;49.902;8.590;2024-03-23T11:45:39;1.47;;;1.33;;
7493;SDS011;3788;49.902;8.590;2024-03-23T11:48:09;1.23;;;1.10;;
7493;SDS011;3788;49.902;8.590;2024-03-23T11:50:36;1.50;;;1.40;;
7493;SDS011;3788;49.902;8.590;2024-03-23T11:53:12;0.90;;;0.90;;
7493;SDS011;3788;49.902;8.590;2024-03-23T11:55:41;1.00;;;0.90;;
7493;SDS011;3788;49.902;8.590;2024-03-23T11:58:09;1.00;;;0.90;;
7493;SDS011;3788;49.902;8.590;2024-03-23T12:00:35;1.47;;;1.37;;
7493;SDS011;3788;49.902;8.590;2024-03-23T12:03:02;1.30;;;1.20;;
7493;SDS011;3788;49.902;8.590;2024-03-23T12:05:29;0.80;;;0.80;;
7493;SDS011;3788;49.902;8.590;2024-03-23T12:07:55;1.10;;;1.00;;
7493;SDS011;3788;49.902;8.590;2024-03-23T12:10:42;1.93;;;1.27;;
7493;SDS011;3788;49.902;8.590;2024-03-23T12:13:11;3.08;;;1.40;;
7493;SDS011;3788;49.902;8.590;2024-03-23T12:15:39;3.67;;;1.60;;
7493;SDS011;3788;49.902;8.590;2024-03-23T12:18:06;2.40;;;1.20;;
7493;SDS011;3788;49.902;8.590;2024-03-23T12:20:32;3.73;;;1.50;;
7493;SDS011;3788;49.902;8.590;2024-03-23T12:23:04;1.97;;;1.63;;
7493;SDS011;3788;49.902;8.590;2024-03-23T12:25:31;3.73;;;1.40;;
7493;SDS011;3788;49.902;8.590;2024-03-23T12:27:58;3.73;;;1.87;;
7493;SDS011;3788;49.902;8.590;2024-03-23T12:30:26;3.77;;;1.90;;
7493;SDS011;3788;49.902;8.590;2024-03-23T12:32:52;3.37;;;2.07;;
7493;SDS011;3788;49.902;8.590;2024-03-23T12:35:18;3.93;;;1.90;;
7493;SDS011;3788;49.902;8.590;2024-03-23T12:37:45;2.80;;;1.70;;
7493;SDS011;3788;49.902;8.590;2024-03-23T12:40:10;2.67;;;2.37;;
7493;SDS011;3788;49.902;8.590;2024-03-23T12:42:37;2.03;;;1.60;;
7493;SDS011;3788;49.902;8.590;2024-03-23T12:45:03;3.67;;;1.57;;
7493;SDS011;3788;49.902;8.590;2024-03-23T12:47:32;1.83;;;1.37;;
7493;SDS011;3788;49.902;8.590;2024-03-23T12:49:57;4.27;;;1.80;;
7493;SDS011;3788;49.902;8.590;2024-03-23T12:52:24;2.20;;;1.53;;
7493;SDS011;3788;49.902;8.590;2024-03-23T12:54:53;4.30;;;2.00;;
7493;SDS011;3788;49.902;8.590;2024-03-23T12:57:21;5.90;;;2.20;;
7493;SDS011;3788;49.902;8.590;2024-03-23T12:59:47;4.07;;;2.13;;
7493;SDS011;3788;49.902;8.590;2024-03-23T13:02:16;3.77;;;2.40;;
7493;SDS011;3788;49.902;8.590;2024-03-23T13:04:44;3.47;;;2.13;;
7493;SDS011;3788;49.902;8.590;2024-03-23T13:07:12;4.93;;;2.30;;
7493;SDS011;3788;49.902;8.590;2024-03-23T13:09:38;3.23;;;1.90;;
7493;SDS011;3788;49.902;8.590;2024-03-23T13:12:05;4.43;;;1.92;;
7493;SDS011;3788;49.902;8.590;2024-03-23T13:14:31;4.57;;;1.83;;
7493;SDS011;3788;49.902;8.590;2024-03-23T13:16:58;3.00;;;1.47;;
7493;SDS011;3788;49.902;8.590;2024-03-23T13:19:24;1.93;;;1.60;;
7493;SDS011;3788;49.902;8.590;2024-03-23T13:21:53;3.47;;;1.53;;
7493;SDS011;3788;49.902;8.590;2024-03-23T13:24:21;2.63;;;1.73;;
7493;SDS011;3788;49.902;8.590;2024-03-23T13:26:49;2.60;;;1.70;;
7493;SDS011;3788;49.902;8.590;2024-03-23T13:29:15;5.53;;;2.00;;
7493;SDS011;3788;49.902;8.590;2024-03-23T13:31:42;2.67;;;1.97;;
7493;SDS011;3788;49.902;8.590;2024-03-23T13:34:08;2.73;;;1.73;;
7493;SDS011;3788;49.902;8.590;2024-03-23T13:36:35;4.10;;;1.70;;
7493;SDS011;3788;49.902;8.590;2024-03-23T13:39:02;2.30;;;1.63;;
7493;SDS011;3788;49.902;8.590;2024-03-23T13:41:31;2.67;;;1.80;;
7493;SDS011;3788;49.902;8.590;2024-03-23T13:43:57;2.40;;;1.83;;
7493;SDS011;3788;49.902;8.590;2024-03-23T13:46:23;3.67;;;1.70;;
7493;SDS011;3788;49.902;8.590;2024-03-23T13:48:49;3.77;;;2.17;;
7493;SDS011;3788;49.902;8.590;2024-03-23T13:51:16;3.17;;;1.73;;
7493;SDS011;3788;49.902;8.590;2024-03-23T13:53:49;1.80;;;1.70;;
7493;SDS011;3788;49.902;8.590;2024-03-23T13:56:17;3.57;;;1.60;;
7493;SDS011;3788;49.902;8.590;2024-03-23T13:58:43;1.97;;;1.77;;
7493;SDS011;3788;49.902;8.590;2024-03-23T14:01:12;3.17;;;1.80;;
7493;SDS011;3788;49.902;8.590;2024-03-23T14:03:38;1.60;;;1.50;;
7493;SDS011;3788;49.902;8.590;2024-03-23T14:06:05;1.93;;;1.73;;
7493;SDS011;3788;49.902;8.590;2024-03-23T14:08:32;1.50;;;1.37;;
7493;SDS011;3788;49.902;8.590;2024-03-23T14:11:00;4.33;;;1.80;;
7493;SDS011;3788;49.902;8.590;2024-03-23T14:13:29;2.27;;;1.83;;
7493;SDS011;3788;49.902;8.590;2024-03-23T14:15:56;3.27;;;1.53;;
7493;SDS011;3788;49.902;8.590;2024-03-23T14:18:23;1.50;;;1.40;;
7493;SDS011;3788;49.902;8.590;2024-03-23T14:20:51;2.33;;;1.30;;
7493;SDS011;3788;49.902;8.590;2024-03-23T14:23:17;2.50;;;1.30;;
7493;SDS011;3788;49.902;8.590;2024-03-23T14:25:43;2.77;;;1.40;;
7493;SDS011;3788;49.902;8.590;2024-03-23T14:28:10;1.40;;;1.10;;
7493;SDS011;3788;49.902;8.590;2024-03-23T14:30:41;2.07;;;1.63;;
7493;SDS011;3788;49.902;8.590;2024-03-23T14:33:07;1.57;;;1.23;;
7493;SDS011;3788;49.902;8.590;2024-03-23T14:35:34;1.50;;;1.20;;
7493;SDS011;3788;49.902;8.590;2024-03-23T14:38:00;2.20;;;1.10;;
7493;SDS011;3788;49.902;8.590;2024-03-23T14:40:27;2.03;;;1.40;;
7493;SDS011;3788;49.902;8.590;2024-03-23T14:42:53;2.40;;;1.10;;
7493;SDS011;3788;49.902;8.590;2024-03-23T14:45:20;1.50;;;1.10;;
7493;SDS011;3788;49.902;8.590;2024-03-23T14:47:47;2.33;;;0.97;;
7493;SDS011;3788;49.902;8.590;2024-03-23T14:50:14;2.03;;;0.97;;
7493;SDS011;3788;49.902;8.590;2024-03-23T14:52:41;2.03;;;0.73;;
7493;SDS011;3788;49.902;8.590;2024-03-23T14:55:08;0.70;;;0.70;;
7493;SDS011;3788;49.902;8.590;2024-03-23T14:57:34;0.90;;;0.80;;
7493;SDS011;3788;49.902;8.590;2024-03-23T15:00:01;1.00;;;0.80;;
7493;SDS011;3788;49.902;8.590;2024-03-23T15:02:29;1.13;;;0.77;;
7493;SDS011;3788;49.902;8.590;2024-03-23T15:04:58;1.07;;;0.70;;
7493;SDS011;3788;49.902;8.590;2024-03-23T15:07:24;2.03;;;1.30;;
7493;SDS011;3788;49.902;8.590;2024-03-23T15:09:50;1.47;;;0.80;;
7493;SDS011;3788;49.902;8.590;2024-03-23T15:12:16;0.80;;;0.70;;
7493;SDS011;3788;49.902;8.590;2024-03-23T15:14:43;1.93;;;1.03;;
7493;SDS011;3788;49.902;8.590;2024-03-23T15:17:08;2.03;;;1.13;;
7493;SDS011;3788;49.902;8.590;2024-03-23T15:19:35;1.90;;;0.83;;
7493;SDS011;3788;49.902;8.590;2024-03-23T15:22:02;1.13;;;1.13;;
7493;SDS011;3788;49.902;8.590;2024-03-23T15:24:29;1.37;;;0.80;;
7493;SDS011;3788;49.902;8.590;2024-03-23T15:26:56;0.67;;;0.67;;
7493;SDS011;3788;49.902;8.590;2024-03-23T15:29:22;1.40;;;0.80;;
7493;SDS011;3788;49.902;8.590;2024-03-23T15:31:48;1.50;;;1.00;;
7493;SDS011;3788;49.902;8.590;2024-03-23T15:34:17;2.40;;;0.80;;
7493;SDS011;3788;49.902;8.590;2024-03-23T15:36:44;1.03;;;0.90;;
7493;SDS011;3788;49.902;8.590;2024-03-23T15:39:12;1.13;;;0.90;;
7493;SDS011;3788;49.902;8.590;2024-03-23T15:41:39;1.00;;;0.77;;
7493;SDS011;3788;49.902;8.590;2024-03-23T15:44:05;0.70;;;0.70;;
7493;SDS011;3788;49.902;8.590;2024-03-23T15:46:31;1.23;;;0.80;;
7493;SDS011;3788;49.902;8.590;2024-03-23T15:48:58;0.70;;;0.63;;
7493;SDS011;3788;49.902;8.590;2024-03-23T15:51:24;2.33;;;0.73;;
7493;SDS011;3788;49.902;8.590;2024-03-23T15:53:56;3.30;;;1.10;;
7493;SDS011;3788;49.902;8.590;2024-03-23T15:56:23;0.80;;;0.80;;
7493;SDS011;3788;49.902;8.590;2024-03-23T15:58:50;1.70;;;0.90;;
7493;SDS011;3788;49.902;8.590;2024-03-23T16:01:17;0.80;;;0.80;;
7493;SDS011;3788;49.902;8.590;2024-03-23T16:03:43;0.70;;;0.70;;
7493;SDS011;3788;49.902;8.590;2024-03-23T16:06:09;0.87;;;0.87;;